sensor_id;sensor_type;location;lat;lon;timestamp;temperature;humidity
1361;DHT22;674;45.552;-122.600;2022-08-26T00:00:20;31.50;1.00
1361;DHT22;674;45.552;-122.600;2022-08-26T00:02:50;31.50;1.00
1361;DHT22;674;45.552;-122.600;2022-08-26T00:05:19;31.60;1.00
1361;DHT22;674;45.552;-122.600;2022-08-26T00:07:49;31.50;1.00
1361;DHT22;674;45.552;-122.600;2022-08-26T00:10:19;31.60;1.00
1361;DHT22;674;45.552;-122.600;2022-08-26T00:12:51;31.60;1.00
1361;DHT22;674;45.552;-122.600;2022-08-26T00:15:21;31.60;1.00
1361;DHT22;674;45.552;-122.600;2022-08-26T00:17:51;31.60;1.00
1361;DHT22;674;45.552;-122.600;2022-08-26T00:20:23;31.70;1.00
1361;DHT22;674;45.552;-122.600;2022-08-26T00:22:53;31.80;1.00
1361;DHT22;674;45.552;-122.600;2022-08-26T00:25:24;31.60;1.00
1361;DHT22;674;45.552;-122.600;2022-08-26T00:27:55;31.70;1.00
1361;DHT22;674;45.552;-122.600;2022-08-26T00:30:27;31.70;1.00
1361;DHT22;674;45.552;-122.600;2022-08-26T00:32:57;31.50;1.00
1361;DHT22;674;45.552;-122.600;2022-08-26T00:35:26;31.50;1.00
1361;DHT22;674;45.552;-122.600;2022-08-26T00:38:00;31.50;1.00
1361;DHT22;674;45.552;-122.600;2022-08-26T00:40:34;31.40;1.00
1361;DHT22;674;45.552;-122.600;2022-08-26T00:43:05;31.20;1.00
1361;DHT22;674;45.552;-122.600;2022-08-26T00:45:57;31.30;1.00
1361;DHT22;674;45.552;-122.600;2022-08-26T00:48:29;31.20;1.00
1361;DHT22;674;45.552;-122.600;2022-08-26T00:51:05;31.10;1.00
1361;DHT22;674;45.552;-122.600;2022-08-26T00:53:40;31.00;1.00
1361;DHT22;674;45.552;-122.600;2022-08-26T00:56:26;31.10;1.00
1361;DHT22;674;45.552;-122.600;2022-08-26T00:59:00;31.00;1.00
1361;DHT22;674;45.552;-122.600;2022-08-26T01:01:30;30.90;1.00
1361;DHT22;674;45.552;-122.600;2022-08-26T01:03:59;30.90;1.00
1361;DHT22;674;45.552;-122.600;2022-08-26T01:06:29;31.00;1.00
1361;DHT22;674;45.552;-122.600;2022-08-26T01:08:58;31.10;1.00
1361;DHT22;674;45.552;-122.600;2022-08-26T01:11:28;30.90;1.00
1361;DHT22;674;45.552;-122.600;2022-08-26T01:13:59;30.90;1.00
1361;DHT22;674;45.552;-122.600;2022-08-26T01:16:32;30.90;1.00
1361;DHT22;674;45.552;-122.600;2022-08-26T01:19:19;31.00;1.00
1361;DHT22;674;45.552;-122.600;2022-08-26T01:22:16;31.00;1.00
1361;DHT22;674;45.552;-122.600;2022-08-26T01:24:47;31.10;1.00
1361;DHT22;674;45.552;-122.600;2022-08-26T01:27:18;30.90;1.00
1361;DHT22;674;45.552;-122.600;2022-08-26T01:29:50;30.90;1.00
1361;DHT22;674;45.552;-122.600;2022-08-26T01:32:21;30.80;1.00
1361;DHT22;674;45.552;-122.600;2022-08-26T01:34:50;30.80;1.00
1361;DHT22;674;45.552;-122.600;2022-08-26T01:37:22;30.70;1.00
1361;DHT22;674;45.552;-122.600;2022-08-26T01:39:52;30.60;1.00
1361;DHT22;674;45.552;-122.600;2022-08-26T01:42:24;30.60;1.00
1361;DHT22;674;45.552;-122.600;2022-08-26T01:45:10;30.60;1.00
1361;DHT22;674;45.552;-122.600;2022-08-26T01:47:42;30.60;1.00
1361;DHT22;674;45.552;-122.600;2022-08-26T01:50:15;30.60;1.00
1361;DHT22;674;45.552;-122.600;2022-08-26T01:52:55;30.40;1.00
1361;DHT22;674;45.552;-122.600;2022-08-26T01:55:25;30.30;1.00
1361;DHT22;674;45.552;-122.600;2022-08-26T01:58:02;30.20;1.00
1361;DHT22;674;45.552;-122.600;2022-08-26T02:00:34;30.20;1.00
1361;DHT22;674;45.552;-122.600;2022-08-26T02:03:06;30.10;1.00
1361;DHT22;674;45.552;-122.600;2022-08-26T02:05:53;30.10;1.00
1361;DHT22;674;45.552;-122.600;2022-08-26T02:08:26;30.10;1.00
1361;DHT22;674;45.552;-122.600;2022-08-26T02:10:56;30.10;1.00
1361;DHT22;674;45.552;-122.600;2022-08-26T02:13:27;29.90;1.00
1361;DHT22;674;45.552;-122.600;2022-08-26T02:15:59;29.70;1.00
1361;DHT22;674;45.552;-122.600;2022-08-26T02:18:36;29.70;1.00
1361;DHT22;674;45.552;-122.600;2022-08-26T02:21:07;29.60;1.00
1361;DHT22;674;45.552;-122.600;2022-08-26T02:23:37;29.50;1.00
1361;DHT22;674;45.552;-122.600;2022-08-26T02:26:14;29.30;1.00
1361;DHT22;674;45.552;-122.600;2022-08-26T02:28:49;29.40;1.00
1361;DHT22;674;45.552;-122.600;2022-08-26T02:31:20;29.30;1.00
1361;DHT22;674;45.552;-122.600;2022-08-26T02:33:50;29.10;1.00
1361;DHT22;674;45.552;-122.600;2022-08-26T02:36:21;29.10;1.00
1361;DHT22;674;45.552;-122.600;2022-08-26T02:38:54;29.10;1.00
1361;DHT22;674;45.552;-122.600;2022-08-26T02:41:23;29.00;1.00
1361;DHT22;674;45.552;-122.600;2022-08-26T02:43:52;28.80;1.00
1361;DHT22;674;45.552;-122.600;2022-08-26T02:46:20;28.70;1.00
1361;DHT22;674;45.552;-122.600;2022-08-26T02:48:56;28.50;1.00
1361;DHT22;674;45.552;-122.600;2022-08-26T02:51:25;28.40;1.00
1361;DHT22;674;45.552;-122.600;2022-08-26T02:53:54;28.30;1.00
1361;DHT22;674;45.552;-122.600;2022-08-26T02:56:22;28.20;1.00
1361;DHT22;674;45.552;-122.600;2022-08-26T02:58:51;28.10;1.00
1361;DHT22;674;45.552;-122.600;2022-08-26T03:01:28;28.10;1.00
1361;DHT22;674;45.552;-122.600;2022-08-26T03:03:59;27.80;1.00
1361;DHT22;674;45.552;-122.600;2022-08-26T03:06:29;27.70;1.00
1361;DHT22;674;45.552;-122.600;2022-08-26T03:08:58;27.50;1.00
1361;DHT22;674;45.552;-122.600;2022-08-26T03:11:27;27.40;1.00
1361;DHT22;674;45.552;-122.600;2022-08-26T03:13:59;27.20;1.00
1361;DHT22;674;45.552;-122.600;2022-08-26T03:16:34;27.00;1.00
1361;DHT22;674;45.552;-122.600;2022-08-26T03:19:05;26.80;1.00
1361;DHT22;674;45.552;-122.600;2022-08-26T03:21:34;26.70;1.00
1361;DHT22;674;45.552;-122.600;2022-08-26T03:24:04;26.50;1.00
1361;DHT22;674;45.552;-122.600;2022-08-26T03:26:32;26.50;1.00
1361;DHT22;674;45.552;-122.600;2022-08-26T03:29:03;26.40;1.00
1361;DHT22;674;45.552;-122.600;2022-08-26T03:31:50;26.30;1.00
1361;DHT22;674;45.552;-122.600;2022-08-26T03:34:19;26.20;1.00
1361;DHT22;674;45.552;-122.600;2022-08-26T03:36:48;26.00;1.00
1361;DHT22;674;45.552;-122.600;2022-08-26T03:39:17;26.00;1.00
1361;DHT22;674;45.552;-122.600;2022-08-26T03:41:45;25.90;1.00
1361;DHT22;674;45.552;-122.600;2022-08-26T03:44:14;25.70;1.00
1361;DHT22;674;45.552;-122.600;2022-08-26T03:46:43;25.60;1.00
1361;DHT22;674;45.552;-122.600;2022-08-26T03:49:12;25.50;1.00
1361;DHT22;674;45.552;-122.600;2022-08-26T03:51:41;25.30;1.00
1361;DHT22;674;45.552;-122.600;2022-08-26T03:54:10;25.20;1.00
1361;DHT22;674;45.552;-122.600;2022-08-26T03:56:39;25.20;1.00
1361;DHT22;674;45.552;-122.600;2022-08-26T03:59:07;25.10;1.00
1361;DHT22;674;45.552;-122.600;2022-08-26T04:01:36;25.00;1.00
1361;DHT22;674;45.552;-122.600;2022-08-26T04:04:04;24.80;1.00
1361;DHT22;674;45.552;-122.600;2022-08-26T04:06:38;24.60;1.00
1361;DHT22;674;45.552;-122.600;2022-08-26T04:09:14;24.60;1.00
1361;DHT22;674;45.552;-122.600;2022-08-26T04:11:45;24.50;1.00
1361;DHT22;674;45.552;-122.600;2022-08-26T04:14:22;24.40;1.00
1361;DHT22;674;45.552;-122.600;2022-08-26T04:16:53;24.40;1.00
1361;DHT22;674;45.552;-122.600;2022-08-26T04:19:22;24.10;1.00
1361;DHT22;674;45.552;-122.600;2022-08-26T04:21:51;23.90;1.00
1361;DHT22;674;45.552;-122.600;2022-08-26T04:24:22;23.80;1.00
1361;DHT22;674;45.552;-122.600;2022-08-26T04:26:51;23.70;1.00
1361;DHT22;674;45.552;-122.600;2022-08-26T04:29:22;23.70;1.00
1361;DHT22;674;45.552;-122.600;2022-08-26T04:31:52;23.60;1.00
1361;DHT22;674;45.552;-122.600;2022-08-26T04:34:26;23.50;1.00
1361;DHT22;674;45.552;-122.600;2022-08-26T04:36:56;23.30;1.00
1361;DHT22;674;45.552;-122.600;2022-08-26T04:39:25;23.20;1.00
1361;DHT22;674;45.552;-122.600;2022-08-26T04:41:54;23.20;1.00
1361;DHT22;674;45.552;-122.600;2022-08-26T04:44:27;23.00;1.00
1361;DHT22;674;45.552;-122.600;2022-08-26T04:46:56;22.90;1.00
1361;DHT22;674;45.552;-122.600;2022-08-26T04:49:25;22.80;1.00
1361;DHT22;674;45.552;-122.600;2022-08-26T04:52:02;22.60;1.00
1361;DHT22;674;45.552;-122.600;2022-08-26T04:54:30;22.60;1.00
1361;DHT22;674;45.552;-122.600;2022-08-26T04:56:59;22.50;1.00
1361;DHT22;674;45.552;-122.600;2022-08-26T04:59:27;22.40;1.00
1361;DHT22;674;45.552;-122.600;2022-08-26T05:01:56;22.30;1.00
1361;DHT22;674;45.552;-122.600;2022-08-26T05:04:26;22.10;1.00
1361;DHT22;674;45.552;-122.600;2022-08-26T05:06:55;22.10;1.00
1361;DHT22;674;45.552;-122.600;2022-08-26T05:09:29;22.00;1.00
1361;DHT22;674;45.552;-122.600;2022-08-26T05:11:57;21.90;1.00
1361;DHT22;674;45.552;-122.600;2022-08-26T05:14:26;21.90;1.00
1361;DHT22;674;45.552;-122.600;2022-08-26T05:16:54;21.80;1.00
1361;DHT22;674;45.552;-122.600;2022-08-26T05:19:23;21.80;1.00
1361;DHT22;674;45.552;-122.600;2022-08-26T05:21:54;21.80;1.00
1361;DHT22;674;45.552;-122.600;2022-08-26T05:24:22;21.70;1.00
1361;DHT22;674;45.552;-122.600;2022-08-26T05:26:51;21.70;1.00
1361;DHT22;674;45.552;-122.600;2022-08-26T05:29:19;21.50;1.00
1361;DHT22;674;45.552;-122.600;2022-08-26T05:31:51;21.40;1.00
1361;DHT22;674;45.552;-122.600;2022-08-26T05:34:22;21.40;1.00
1361;DHT22;674;45.552;-122.600;2022-08-26T05:36:56;21.30;1.00
1361;DHT22;674;45.552;-122.600;2022-08-26T05:39:25;21.10;1.00
1361;DHT22;674;45.552;-122.600;2022-08-26T05:41:54;21.10;1.00
1361;DHT22;674;45.552;-122.600;2022-08-26T05:44:23;21.10;1.00
1361;DHT22;674;45.552;-122.600;2022-08-26T05:46:51;21.10;1.00
1361;DHT22;674;45.552;-122.600;2022-08-26T05:49:20;21.00;1.00
1361;DHT22;674;45.552;-122.600;2022-08-26T05:51:48;21.00;1.00
1361;DHT22;674;45.552;-122.600;2022-08-26T05:54:17;20.80;1.00
1361;DHT22;674;45.552;-122.600;2022-08-26T05:56:49;20.80;1.00
1361;DHT22;674;45.552;-122.600;2022-08-26T05:59:18;20.80;1.00
1361;DHT22;674;45.552;-122.600;2022-08-26T06:01:50;20.70;1.00
1361;DHT22;674;45.552;-122.600;2022-08-26T06:04:19;20.60;1.00
1361;DHT22;674;45.552;-122.600;2022-08-26T06:06:47;20.50;1.00
1361;DHT22;674;45.552;-122.600;2022-08-26T06:09:16;20.40;1.00
1361;DHT22;674;45.552;-122.600;2022-08-26T06:11:44;20.40;1.00
1361;DHT22;674;45.552;-122.600;2022-08-26T06:14:13;20.30;1.00
1361;DHT22;674;45.552;-122.600;2022-08-26T06:16:44;20.30;1.00
1361;DHT22;674;45.552;-122.600;2022-08-26T06:19:14;20.10;1.00
1361;DHT22;674;45.552;-122.600;2022-08-26T06:21:46;20.00;1.00
1361;DHT22;674;45.552;-122.600;2022-08-26T06:24:21;20.00;1.00
1361;DHT22;674;45.552;-122.600;2022-08-26T06:27:08;19.90;1.00
1361;DHT22;674;45.552;-122.600;2022-08-26T06:29:41;19.80;3.10
1361;DHT22;674;45.552;-122.600;2022-08-26T06:32:10;19.70;8.40
1361;DHT22;674;45.552;-122.600;2022-08-26T06:34:39;19.70;10.70
1361;DHT22;674;45.552;-122.600;2022-08-26T06:37:07;19.70;11.00
1361;DHT22;674;45.552;-122.600;2022-08-26T06:39:36;19.70;13.50
1361;DHT22;674;45.552;-122.600;2022-08-26T06:42:07;19.60;19.40
1361;DHT22;674;45.552;-122.600;2022-08-26T06:44:38;19.50;25.70
1361;DHT22;674;45.552;-122.600;2022-08-26T06:47:07;19.60;24.30
1361;DHT22;674;45.552;-122.600;2022-08-26T06:49:36;19.50;30.00
1361;DHT22;674;45.552;-122.600;2022-08-26T06:52:05;19.30;38.60
1361;DHT22;674;45.552;-122.600;2022-08-26T06:54:34;19.40;42.40
1361;DHT22;674;45.552;-122.600;2022-08-26T06:57:05;19.30;49.10
1361;DHT22;674;45.552;-122.600;2022-08-26T06:59:33;19.20;56.90
1361;DHT22;674;45.552;-122.600;2022-08-26T07:02:03;19.20;59.30
1361;DHT22;674;45.552;-122.600;2022-08-26T07:04:34;19.20;56.30
1361;DHT22;674;45.552;-122.600;2022-08-26T07:07:02;19.10;61.30
1361;DHT22;674;45.552;-122.600;2022-08-26T07:09:31;19.10;62.50
1361;DHT22;674;45.552;-122.600;2022-08-26T07:12:03;19.10;61.50
1361;DHT22;674;45.552;-122.600;2022-08-26T07:14:33;19.10;62.40
1361;DHT22;674;45.552;-122.600;2022-08-26T07:17:02;19.00;62.50
1361;DHT22;674;45.552;-122.600;2022-08-26T07:19:36;19.00;64.00
1361;DHT22;674;45.552;-122.600;2022-08-26T07:22:06;18.90;67.10
1361;DHT22;674;45.552;-122.600;2022-08-26T07:24:37;18.90;68.70
1361;DHT22;674;45.552;-122.600;2022-08-26T07:27:13;18.80;72.70
1361;DHT22;674;45.552;-122.600;2022-08-26T07:29:43;18.70;78.10
1361;DHT22;674;45.552;-122.600;2022-08-26T07:32:13;18.70;79.20
1361;DHT22;674;45.552;-122.600;2022-08-26T07:34:42;18.70;80.50
1361;DHT22;674;45.552;-122.600;2022-08-26T07:37:11;18.60;85.70
1361;DHT22;674;45.552;-122.600;2022-08-26T07:39:40;18.60;88.40
1361;DHT22;674;45.552;-122.600;2022-08-26T07:42:11;18.50;91.00
1361;DHT22;674;45.552;-122.600;2022-08-26T07:44:41;18.50;91.90
1361;DHT22;674;45.552;-122.600;2022-08-26T07:47:11;18.40;92.80
1361;DHT22;674;45.552;-122.600;2022-08-26T07:49:54;18.30;95.90
1361;DHT22;674;45.552;-122.600;2022-08-26T07:52:24;18.30;97.60
1361;DHT22;674;45.552;-122.600;2022-08-26T07:54:55;18.30;97.50
1361;DHT22;674;45.552;-122.600;2022-08-26T07:57:26;18.20;99.90
1361;DHT22;674;45.552;-122.600;2022-08-26T07:59:56;18.10;99.90
1361;DHT22;674;45.552;-122.600;2022-08-26T08:02:26;18.10;99.90
1361;DHT22;674;45.552;-122.600;2022-08-26T08:04:56;18.10;99.90
1361;DHT22;674;45.552;-122.600;2022-08-26T08:07:26;18.10;99.90
1361;DHT22;674;45.552;-122.600;2022-08-26T08:10:15;18.00;99.90
1361;DHT22;674;45.552;-122.600;2022-08-26T08:12:47;18.00;99.90
1361;DHT22;674;45.552;-122.600;2022-08-26T08:15:18;17.90;99.90
1361;DHT22;674;45.552;-122.600;2022-08-26T08:17:47;17.90;99.90
1361;DHT22;674;45.552;-122.600;2022-08-26T08:20:18;17.90;99.90
1361;DHT22;674;45.552;-122.600;2022-08-26T08:22:49;17.80;99.90
1361;DHT22;674;45.552;-122.600;2022-08-26T08:25:20;17.80;99.90
1361;DHT22;674;45.552;-122.600;2022-08-26T08:27:49;17.70;99.90
1361;DHT22;674;45.552;-122.600;2022-08-26T08:30:19;17.70;99.90
1361;DHT22;674;45.552;-122.600;2022-08-26T08:32:50;17.60;99.90
1361;DHT22;674;45.552;-122.600;2022-08-26T08:35:20;17.60;99.90
1361;DHT22;674;45.552;-122.600;2022-08-26T08:37:50;17.60;99.90
1361;DHT22;674;45.552;-122.600;2022-08-26T08:40:23;17.60;99.90
1361;DHT22;674;45.552;-122.600;2022-08-26T08:43:05;17.60;99.90
1361;DHT22;674;45.552;-122.600;2022-08-26T08:45:48;17.60;99.90
1361;DHT22;674;45.552;-122.600;2022-08-26T08:50:51;17.60;99.90
1361;DHT22;674;45.552;-122.600;2022-08-26T08:53:32;17.50;99.90
1361;DHT22;674;45.552;-122.600;2022-08-26T08:59:12;17.50;99.90
1361;DHT22;674;45.552;-122.600;2022-08-26T09:07:12;17.50;99.90
1361;DHT22;674;45.552;-122.600;2022-08-26T09:09:58;17.50;99.90
1361;DHT22;674;45.552;-122.600;2022-08-26T09:12:30;17.50;99.90
1361;DHT22;674;45.552;-122.600;2022-08-26T09:15:26;17.50;99.90
1361;DHT22;674;45.552;-122.600;2022-08-26T09:18:08;17.50;99.90
1361;DHT22;674;45.552;-122.600;2022-08-26T09:23:21;17.50;99.90
1361;DHT22;674;45.552;-122.600;2022-08-26T09:25:54;17.50;99.90
1361;DHT22;674;45.552;-122.600;2022-08-26T09:28:26;17.50;99.90
1361;DHT22;674;45.552;-122.600;2022-08-26T09:33:41;17.30;99.90
1361;DHT22;674;45.552;-122.600;2022-08-26T09:36:17;17.30;99.90
1361;DHT22;674;45.552;-122.600;2022-08-26T09:38:52;17.20;99.90
1361;DHT22;674;45.552;-122.600;2022-08-26T09:41:30;17.20;99.90
1361;DHT22;674;45.552;-122.600;2022-08-26T09:44:18;17.20;99.90
1361;DHT22;674;45.552;-122.600;2022-08-26T09:47:06;17.20;99.90
1361;DHT22;674;45.552;-122.600;2022-08-26T09:49:39;17.20;99.90
1361;DHT22;674;45.552;-122.600;2022-08-26T09:52:20;17.20;99.90
1361;DHT22;674;45.552;-122.600;2022-08-26T09:55:20;17.20;99.90
1361;DHT22;674;45.552;-122.600;2022-08-26T09:57:50;17.20;99.90
1361;DHT22;674;45.552;-122.600;2022-08-26T10:00:27;17.30;99.90
1361;DHT22;674;45.552;-122.600;2022-08-26T10:03:00;17.30;99.90
1361;DHT22;674;45.552;-122.600;2022-08-26T10:05:44;17.20;99.90
1361;DHT22;674;45.552;-122.600;2022-08-26T10:10:55;17.30;99.90
1361;DHT22;674;45.552;-122.600;2022-08-26T10:16:20;17.30;99.90
1361;DHT22;674;45.552;-122.600;2022-08-26T10:18:57;17.20;99.90
1361;DHT22;674;45.552;-122.600;2022-08-26T10:21:42;17.20;99.90
1361;DHT22;674;45.552;-122.600;2022-08-26T10:24:23;17.30;99.90
1361;DHT22;674;45.552;-122.600;2022-08-26T10:27:15;17.20;99.90
1361;DHT22;674;45.552;-122.600;2022-08-26T10:29:48;17.20;99.90
1361;DHT22;674;45.552;-122.600;2022-08-26T10:32:39;17.20;99.90
1361;DHT22;674;45.552;-122.600;2022-08-26T10:35:11;17.20;99.90
1361;DHT22;674;45.552;-122.600;2022-08-26T10:37:47;17.20;99.90
1361;DHT22;674;45.552;-122.600;2022-08-26T10:40:44;17.20;99.90
1361;DHT22;674;45.552;-122.600;2022-08-26T10:43:32;17.20;99.90
1361;DHT22;674;45.552;-122.600;2022-08-26T10:46:12;17.20;99.90
1361;DHT22;674;45.552;-122.600;2022-08-26T10:51:16;17.10;99.90
1361;DHT22;674;45.552;-122.600;2022-08-26T10:53:56;17.10;99.90
1361;DHT22;674;45.552;-122.600;2022-08-26T11:02:38;17.00;99.90
1361;DHT22;674;45.552;-122.600;2022-08-26T11:05:20;17.00;99.90
1361;DHT22;674;45.552;-122.600;2022-08-26T11:07:53;16.90;99.90
1361;DHT22;674;45.552;-122.600;2022-08-26T11:13:10;16.90;99.90
1361;DHT22;674;45.552;-122.600;2022-08-26T11:18:10;16.90;99.90
1361;DHT22;674;45.552;-122.600;2022-08-26T11:20:40;16.80;99.90
1361;DHT22;674;45.552;-122.600;2022-08-26T11:31:03;16.70;99.90
1361;DHT22;674;45.552;-122.600;2022-08-26T11:33:49;16.70;99.90
1361;DHT22;674;45.552;-122.600;2022-08-26T11:39:15;16.70;99.90
1361;DHT22;674;45.552;-122.600;2022-08-26T11:41:50;16.70;99.90
1361;DHT22;674;45.552;-122.600;2022-08-26T11:44:26;16.70;99.90
1361;DHT22;674;45.552;-122.600;2022-08-26T11:46:59;16.80;99.90
1361;DHT22;674;45.552;-122.600;2022-08-26T11:49:29;16.80;99.90
1361;DHT22;674;45.552;-122.600;2022-08-26T11:55:08;16.70;99.90
1361;DHT22;674;45.552;-122.600;2022-08-26T11:57:46;16.80;99.90
1361;DHT22;674;45.552;-122.600;2022-08-26T12:00:25;16.70;99.90
1361;DHT22;674;45.552;-122.600;2022-08-26T12:03:05;16.80;99.90
1361;DHT22;674;45.552;-122.600;2022-08-26T12:05:40;16.90;99.90
1361;DHT22;674;45.552;-122.600;2022-08-26T12:08:12;17.00;99.90
1361;DHT22;674;45.552;-122.600;2022-08-26T12:10:43;16.80;99.90
1361;DHT22;674;45.552;-122.600;2022-08-26T12:13:21;16.90;99.90
1361;DHT22;674;45.552;-122.600;2022-08-26T12:15:56;16.70;99.90
1361;DHT22;674;45.552;-122.600;2022-08-26T12:18:32;16.60;99.90
1361;DHT22;674;45.552;-122.600;2022-08-26T12:21:18;16.70;99.90
1361;DHT22;674;45.552;-122.600;2022-08-26T12:23:56;16.70;99.90
1361;DHT22;674;45.552;-122.600;2022-08-26T12:26:31;16.80;99.90
1361;DHT22;674;45.552;-122.600;2022-08-26T12:29:06;16.80;99.90
1361;DHT22;674;45.552;-122.600;2022-08-26T12:32:15;16.90;99.90
1361;DHT22;674;45.552;-122.600;2022-08-26T12:34:46;16.90;99.90
1361;DHT22;674;45.552;-122.600;2022-08-26T12:37:16;16.90;99.90
1361;DHT22;674;45.552;-122.600;2022-08-26T12:39:45;16.90;99.90
1361;DHT22;674;45.552;-122.600;2022-08-26T12:44:56;16.90;99.90
1361;DHT22;674;45.552;-122.600;2022-08-26T12:47:40;16.90;99.90
1361;DHT22;674;45.552;-122.600;2022-08-26T12:50:43;16.80;99.90
1361;DHT22;674;45.552;-122.600;2022-08-26T12:53:31;16.80;99.90
1361;DHT22;674;45.552;-122.600;2022-08-26T12:56:03;16.80;99.90
1361;DHT22;674;45.552;-122.600;2022-08-26T12:58:34;16.70;99.90
1361;DHT22;674;45.552;-122.600;2022-08-26T13:03:37;16.70;99.90
1361;DHT22;674;45.552;-122.600;2022-08-26T13:08:47;16.60;99.90
1361;DHT22;674;45.552;-122.600;2022-08-26T13:11:18;16.50;99.90
1361;DHT22;674;45.552;-122.600;2022-08-26T13:13:49;16.50;99.90
1361;DHT22;674;45.552;-122.600;2022-08-26T13:16:21;16.50;99.90
1361;DHT22;674;45.552;-122.600;2022-08-26T13:18:52;16.50;99.90
1361;DHT22;674;45.552;-122.600;2022-08-26T13:21:25;16.50;99.90
1361;DHT22;674;45.552;-122.600;2022-08-26T13:24:09;16.50;99.90
1361;DHT22;674;45.552;-122.600;2022-08-26T13:26:41;16.50;99.90
1361;DHT22;674;45.552;-122.600;2022-08-26T13:29:10;16.60;99.90
1361;DHT22;674;45.552;-122.600;2022-08-26T13:31:41;16.60;99.90
1361;DHT22;674;45.552;-122.600;2022-08-26T13:34:17;16.70;99.90
1361;DHT22;674;45.552;-122.600;2022-08-26T13:36:51;16.70;99.90
1361;DHT22;674;45.552;-122.600;2022-08-26T13:39:22;16.80;99.90
1361;DHT22;674;45.552;-122.600;2022-08-26T13:41:52;16.80;99.90
1361;DHT22;674;45.552;-122.600;2022-08-26T13:44:21;16.90;99.90
1361;DHT22;674;45.552;-122.600;2022-08-26T13:46:50;17.00;99.90
1361;DHT22;674;45.552;-122.600;2022-08-26T13:49:19;17.00;99.90
1361;DHT22;674;45.552;-122.600;2022-08-26T13:51:49;17.20;99.90
1361;DHT22;674;45.552;-122.600;2022-08-26T13:54:19;17.20;99.90
1361;DHT22;674;45.552;-122.600;2022-08-26T13:56:48;17.30;99.90
1361;DHT22;674;45.552;-122.600;2022-08-26T13:59:18;17.30;99.90
1361;DHT22;674;45.552;-122.600;2022-08-26T14:01:47;17.40;99.90
1361;DHT22;674;45.552;-122.600;2022-08-26T14:04:15;17.40;99.90
1361;DHT22;674;45.552;-122.600;2022-08-26T14:06:53;17.50;99.90
1361;DHT22;674;45.552;-122.600;2022-08-26T14:09:21;17.60;99.90
1361;DHT22;674;45.552;-122.600;2022-08-26T14:11:51;17.70;99.90
1361;DHT22;674;45.552;-122.600;2022-08-26T14:14:21;17.80;99.90
1361;DHT22;674;45.552;-122.600;2022-08-26T14:16:50;17.80;99.90
1361;DHT22;674;45.552;-122.600;2022-08-26T14:19:27;17.80;99.90
1361;DHT22;674;45.552;-122.600;2022-08-26T14:21:57;17.80;99.90
1361;DHT22;674;45.552;-122.600;2022-08-26T14:24:27;18.00;99.90
1361;DHT22;674;45.552;-122.600;2022-08-26T14:26:57;18.00;99.90
1361;DHT22;674;45.552;-122.600;2022-08-26T14:29:26;18.10;99.90
1361;DHT22;674;45.552;-122.600;2022-08-26T14:31:56;18.10;99.90
1361;DHT22;674;45.552;-122.600;2022-08-26T14:34:26;18.20;99.90
1361;DHT22;674;45.552;-122.600;2022-08-26T14:36:55;18.30;99.90
1361;DHT22;674;45.552;-122.600;2022-08-26T14:39:33;18.30;97.20
1361;DHT22;674;45.552;-122.600;2022-08-26T14:42:02;18.50;92.70
1361;DHT22;674;45.552;-122.600;2022-08-26T14:44:34;18.60;91.20
1361;DHT22;674;45.552;-122.600;2022-08-26T14:47:04;18.70;80.90
1361;DHT22;674;45.552;-122.600;2022-08-26T14:49:33;18.50;77.30
1361;DHT22;674;45.552;-122.600;2022-08-26T14:52:02;18.70;84.00
1361;DHT22;674;45.552;-122.600;2022-08-26T14:54:31;18.70;83.80
1361;DHT22;674;45.552;-122.600;2022-08-26T14:57:05;18.60;78.10
1361;DHT22;674;45.552;-122.600;2022-08-26T14:59:36;18.60;87.40
1361;DHT22;674;45.552;-122.600;2022-08-26T15:02:07;18.80;82.00
1361;DHT22;674;45.552;-122.600;2022-08-26T15:04:40;18.70;77.60
1361;DHT22;674;45.552;-122.600;2022-08-26T15:07:08;18.90;81.80
1361;DHT22;674;45.552;-122.600;2022-08-26T15:09:38;18.80;80.30
1361;DHT22;674;45.552;-122.600;2022-08-26T15:12:07;18.90;78.50
1361;DHT22;674;45.552;-122.600;2022-08-26T15:14:35;18.90;58.40
1361;DHT22;674;45.552;-122.600;2022-08-26T15:17:04;18.90;60.30
1361;DHT22;674;45.552;-122.600;2022-08-26T15:19:33;19.10;51.30
1361;DHT22;674;45.552;-122.600;2022-08-26T15:22:01;19.20;50.90
1361;DHT22;674;45.552;-122.600;2022-08-26T15:24:30;19.20;55.20
1361;DHT22;674;45.552;-122.600;2022-08-26T15:26:59;19.10;43.10
1361;DHT22;674;45.552;-122.600;2022-08-26T15:29:28;19.20;44.80
1361;DHT22;674;45.552;-122.600;2022-08-26T15:32:01;19.40;44.10
1361;DHT22;674;45.552;-122.600;2022-08-26T15:34:30;19.50;22.20
1361;DHT22;674;45.552;-122.600;2022-08-26T15:36:58;19.50;30.00
1361;DHT22;674;45.552;-122.600;2022-08-26T15:39:27;19.60;31.30
1361;DHT22;674;45.552;-122.600;2022-08-26T15:41:56;19.70;13.70
1361;DHT22;674;45.552;-122.600;2022-08-26T15:44:26;19.90;5.80
1361;DHT22;674;45.552;-122.600;2022-08-26T15:46:55;20.00;2.50
1361;DHT22;674;45.552;-122.600;2022-08-26T15:49:25;20.10;1.00
1361;DHT22;674;45.552;-122.600;2022-08-26T15:51:54;20.10;1.00
1361;DHT22;674;45.552;-122.600;2022-08-26T15:54:23;20.20;1.00
1361;DHT22;674;45.552;-122.600;2022-08-26T15:56:51;20.40;1.00
1361;DHT22;674;45.552;-122.600;2022-08-26T15:59:21;20.80;1.00
1361;DHT22;674;45.552;-122.600;2022-08-26T16:01:50;21.00;1.00
1361;DHT22;674;45.552;-122.600;2022-08-26T16:04:19;21.40;1.00
1361;DHT22;674;45.552;-122.600;2022-08-26T16:06:48;21.60;1.00
1361;DHT22;674;45.552;-122.600;2022-08-26T16:09:22;21.60;1.00
1361;DHT22;674;45.552;-122.600;2022-08-26T16:11:55;21.40;1.00
1361;DHT22;674;45.552;-122.600;2022-08-26T16:14:25;21.50;1.00
1361;DHT22;674;45.552;-122.600;2022-08-26T16:16:54;21.60;1.00
1361;DHT22;674;45.552;-122.600;2022-08-26T16:19:24;21.40;1.00
1361;DHT22;674;45.552;-122.600;2022-08-26T16:21:52;21.20;1.00
1361;DHT22;674;45.552;-122.600;2022-08-26T16:24:21;21.30;1.00
1361;DHT22;674;45.552;-122.600;2022-08-26T16:26:56;21.00;1.00
1361;DHT22;674;45.552;-122.600;2022-08-26T16:29:25;20.90;1.00
1361;DHT22;674;45.552;-122.600;2022-08-26T16:31:54;20.90;1.00
1361;DHT22;674;45.552;-122.600;2022-08-26T16:34:22;21.00;1.00
1361;DHT22;674;45.552;-122.600;2022-08-26T16:36:51;21.40;1.00
1361;DHT22;674;45.552;-122.600;2022-08-26T16:39:19;21.00;1.00
1361;DHT22;674;45.552;-122.600;2022-08-26T16:41:48;21.20;1.00
1361;DHT22;674;45.552;-122.600;2022-08-26T16:44:17;21.10;1.00
1361;DHT22;674;45.552;-122.600;2022-08-26T16:46:45;21.20;1.00
1361;DHT22;674;45.552;-122.600;2022-08-26T16:49:13;21.50;1.00
1361;DHT22;674;45.552;-122.600;2022-08-26T16:51:42;21.10;1.00
1361;DHT22;674;45.552;-122.600;2022-08-26T16:54:10;21.40;1.00
1361;DHT22;674;45.552;-122.600;2022-08-26T16:56:39;21.50;1.00
1361;DHT22;674;45.552;-122.600;2022-08-26T16:59:08;20.80;1.00
1361;DHT22;674;45.552;-122.600;2022-08-26T17:01:38;20.70;1.00
1361;DHT22;674;45.552;-122.600;2022-08-26T17:04:06;21.10;1.00
1361;DHT22;674;45.552;-122.600;2022-08-26T17:06:35;21.00;1.00